Time;durP1;ratioP1;P1;durP2;ratioP2;P2;SDS_P1;SDS_P2;PMS_P1;PMS_P2;Temp;Humidity;BMP_temperature;BMP_pressure;BME280_temperature;BME280_humidity;BME280_pressure;Samples;Min_cycle;Max_cycle;Signal;HPM_P1;HPM_P2
2022/05/20 00:00:55;;;;;;;14.07;7.85;;;;;;;;;;4732374;30;20048;-85
2022/05/20 00:03:22;;;;;;;12.40;9.02;;;;;;;;;;4731629;30;20526;-86
2022/05/20 00:05:48;;;;;;;10.18;9.15;;;;;;;;;;4717805;30;20201;-86
2022/05/20 00:08:14;;;;;;;14.85;9.02;;;;;;;;;;4717749;30;20061;-86
2022/05/20 00:10:40;;;;;;;9.60;8.60;;;;;;;;;;4716042;30;20060;-86
2022/05/20 00:13:06;;;;;;;11.25;9.52;;;;;;;;;;4717556;30;20418;-86
2022/05/20 00:15:33;;;;;;;11.80;9.10;;;;;;;;;;4717059;30;20053;-86
2022/05/20 00:17:59;;;;;;;10.50;8.48;;;;;;;;;;4732295;30;20056;-86
2022/05/20 00:20:27;;;;;;;17.10;9.02;;;13.20;99.90;;;;;;4731632;30;20403;-86
2022/05/20 00:22:53;;;;;;;11.48;9.75;;;;;;;;;;4731863;30;20085;-86
2022/05/20 00:28:05;;;;;;;12.13;9.20;;;;;;;;;;4732111;30;20060;-86
2022/05/20 00:30:31;;;;;;;13.00;8.70;;;;;;;;;;4731398;30;20135;-86
2022/05/20 00:32:57;;;;;;;14.55;9.20;;;;;;;;;;4734575;30;20139;-85
2022/05/20 00:35:23;;;;;;;13.75;9.90;;;;;;;;;;4734874;30;20053;-86
2022/05/20 00:37:49;;;;;;;16.20;9.73;;;;;;;;;;4735371;30;20052;-86
2022/05/20 00:40:20;;;;;;;13.32;9.35;;;13.10;99.90;;;;;;4734326;30;20044;-85
2022/05/20 00:42:46;;;;;;;13.98;9.27;;;;;;;;;;4721082;30;20059;-86
2022/05/20 00:45:13;;;;;;;10.88;9.18;;;;;;;;;;4720640;30;20056;-86
2022/05/20 00:47:40;;;;;;;14.70;9.45;;;;;;;;;;4735443;30;20102;-86
2022/05/20 00:50:11;;;;;;;10.95;9.43;;;12.80;99.90;;;;;;4734886;30;20053;-86
2022/05/20 00:52:38;;;;;;;17.77;10.25;;;;;;;;;;4719949;30;20060;-86
2022/05/20 00:55:07;;;;;;;16.35;9.25;;;;;;;;;;4734371;30;20052;-85
2022/05/20 00:57:38;;;;;;;16.10;8.52;;;12.80;99.90;;;;;;4720026;30;20056;-86
2022/05/20 01:00:10;;;;;;;11.02;9.43;;;;;;;;;;4718677;30;20044;-86
2022/05/20 01:02:37;;;;;;;17.90;9.95;;;;;;;;;;4720567;30;20052;-85
2022/05/20 01:05:09;;;;;;;13.55;10.02;;;12.70;99.90;;;;;;4719716;30;20529;-86
2022/05/20 01:07:38;;;;;;;13.55;9.60;;;;;;;;;;4720577;30;20048;-85
2022/05/20 01:10:04;;;;;;;15.20;10.10;;;;;;;;;;4719223;30;20122;-86
2022/05/20 01:12:30;;;;;;;16.45;9.85;;;;;;;;;;4734480;30;20048;-85
2022/05/20 01:14:56;;;;;;;11.90;9.70;;;;;;;;;;4735015;30;20060;-85
2022/05/20 01:17:23;;;;;;;13.38;9.52;;;;;;;;;;4719329;30;20143;-85
2022/05/20 01:19:54;;;;;;;15.20;10.82;;;;;;;;;;4718773;30;20056;-85
2022/05/20 01:22:26;;;;;;;17.83;11.15;;;;;;;;;;4719537;30;20091;-86
2022/05/20 01:24:52;;;;;;;13.20;10.60;;;;;;;;;;4734513;30;20048;-86
2022/05/20 01:27:18;;;;;;;15.30;11.15;;;;;;;;;;4733871;30;20054;-85
2022/05/20 01:29:44;;;;;;;16.75;11.07;;;;;;;;;;4734044;30;20049;-85
2022/05/20 01:32:10;;;;;;;19.52;11.02;;;;;;;;;;4719987;30;20056;-85
2022/05/20 01:34:36;;;;;;;13.55;11.15;;;;;;;;;;4719574;30;20064;-86
2022/05/20 01:37:02;;;;;;;20.45;12.07;;;;;;;;;;4719936;30;20147;-86
2022/05/20 01:39:28;;;;;;;16.10;11.23;;;;;;;;;;4733804;30;20080;-87
2022/05/20 01:41:54;;;;;;;15.48;11.50;;;;;;;;;;4719295;30;20061;-86
2022/05/20 01:44:45;;;;;;;16.55;10.70;;;12.50;99.90;;;;;;4733804;30;20070;-86
2022/05/20 01:47:25;;;;;;;14.13;11.32;;;;;;;;;;4732327;30;20396;-85
2022/05/20 01:50:27;;;;;;;18.70;13.00;;;12.20;99.90;;;;;;4734292;30;20064;-85
2022/05/20 01:52:53;;;;;;;18.33;12.90;;;;;;;;;;4684146;30;20065;-85
2022/05/20 01:55:22;;;;;;;20.30;13.00;;;;;;;;;;4666289;30;20131;-85
2022/05/20 01:57:54;;;;;;;15.85;10.90;;;;;;;;;;4669768;30;20104;-86
2022/05/20 02:00:22;;;;;;;18.38;12.30;;;;;;;;;;4656462;30;20050;-85
2022/05/20 02:03:01;;;;;;;15.45;11.98;;;;;;;;;;4664713;30;20074;-85
2022/05/20 02:05:34;;;;;;;15.70;12.05;;;12.40;99.90;;;;;;4682416;30;20045;-85
2022/05/20 02:08:08;;;;;;;19.48;12.13;;;12.50;99.90;;;;;;4669083;30;20104;-86
2022/05/20 02:10:51;;;;;;;18.02;11.57;;;12.50;99.90;;;;;;4669460;30;20262;-86
2022/05/20 02:13:18;;;;;;;15.50;11.80;;;12.40;99.90;;;;;;4679634;30;20564;-85
2022/05/20 02:15:50;;;;;;;19.42;11.65;;;;;;;;;;4682107;30;20585;-85
2022/05/20 02:18:18;;;;;;;18.50;11.57;;;;;;;;;;4680764;30;20054;-85
2022/05/20 02:20:51;;;;;;;14.15;11.40;;;12.30;99.90;;;;;;4680149;30;20054;-85
2022/05/20 02:23:20;;;;;;;14.98;12.93;;;;;;;;;;4681503;30;20092;-85
2022/05/20 02:25:48;;;;;;;15.80;11.18;;;;;;;;;;4668784;30;20074;-85
2022/05/20 02:28:14;;;;;;;17.15;12.02;;;;;;;;;;4703928;30;20147;-85
2022/05/20 02:30:41;;;;;;;16.38;12.20;;;;;;;;;;4734000;30;20063;-86
2022/05/20 02:33:10;;;;;;;15.55;12.00;;;;;;;;;;4732781;30;20052;-86
2022/05/20 02:35:36;;;;;;;15.65;11.75;;;;;;;;;;4718871;30;20053;-86
2022/05/20 02:38:09;;;;;;;21.20;12.43;;;;;;;;;;4732570;30;20517;-86
2022/05/20 02:40:35;;;;;;;20.77;12.95;;;;;;;;;;4715587;30;20212;-86
2022/05/20 02:43:01;;;;;;;16.48;11.82;;;;;;;;;;4715100;30;20548;-85
2022/05/20 02:45:28;;;;;;;13.63;11.30;;;;;;;;;;4719325;30;20126;-85
2022/05/20 02:47:54;;;;;;;14.75;12.30;;;;;;;;;;4718043;30;20098;-86
2022/05/20 02:50:20;;;;;;;17.52;12.13;;;;;;;;;;4732607;30;20395;-86
2022/05/20 02:52:46;;;;;;;19.05;12.82;;;;;;;;;;4718863;30;20052;-85
2022/05/20 02:55:12;;;;;;;17.05;11.27;;;;;;;;;;4732049;30;20056;-85
2022/05/20 02:57:38;;;;;;;20.88;12.98;;;;;;;;;;4718602;30;20459;-85
2022/05/20 03:05:55;;;;;;;25.08;13.77;;;;;;;;;;4682419;30;20093;-85
2022/05/20 03:08:21;;;;;;;23.52;13.00;;;;;;;;;;4682956;30;20088;-86
2022/05/20 03:10:48;;;;;;;19.15;13.25;;;;;;;;;;4666514;30;20073;-85
2022/05/20 03:13:14;;;;;;;21.35;14.13;;;;;;;;;;4668274;30;20061;-86
2022/05/20 03:15:41;;;;;;;22.33;13.23;;;;;;;;;;4682299;30;20061;-85
2022/05/20 03:18:08;;;;;;;17.35;14.55;;;12.00;99.90;;;;;;4668935;30;20227;-85
2022/05/20 03:20:35;;;;;;;22.63;13.88;;;;;;;;;;4681970;30;20078;-85
2022/05/20 03:23:01;;;;;;;20.50;14.13;;;;;;;;;;4665770;30;20065;-86
2022/05/20 03:25:27;;;;;;;15.90;13.75;;;;;;;;;;4668346;30;20140;-85
2022/05/20 03:27:53;;;;;;;21.75;13.82;;;;;;;;;;4679111;30;20108;-86
2022/05/20 03:30:19;;;;;;;21.63;14.75;;;;;;;;;;4681635;30;20212;-85
2022/05/20 03:32:45;;;;;;;18.42;14.55;;;;;;;;;;4682611;30;20049;-85
2022/05/20 03:35:12;;;;;;;15.85;12.75;;;;;;;;;;4667761;30;20053;-85
2022/05/20 03:37:38;;;;;;;18.23;13.90;;;;;;;;;;4712539;30;20078;-85
2022/05/20 03:40:04;;;;;;;17.80;14.73;;;;;;;;;;4732054;30;20057;-86
2022/05/20 03:42:31;;;;;;;18.83;13.73;;;;;;;;;;4714396;30;20084;-85
2022/05/20 03:44:57;;;;;;;23.25;14.35;;;;;;;;;;4700671;30;20084;-85
2022/05/20 03:47:23;;;;;;;19.23;13.73;;;;;;;;;;4702816;30;20053;-86
2022/05/20 03:49:50;;;;;;;17.80;14.50;;;;;;;;;;4700502;30;20140;-85
2022/05/20 03:52:16;;;;;;;22.38;14.90;;;;;;;;;;4717949;30;20086;-85
2022/05/20 03:54:43;;;;;;;25.05;14.73;;;;;;;;;;4713723;30;20049;-85
2022/05/20 03:57:09;;;;;;;27.65;14.25;;;;;;;;;;4700494;30;20053;-86
2022/05/20 03:59:36;;;;;;;23.00;14.90;;;;;;;;;;4724833;30;20060;-85
2022/05/20 04:02:05;;;;;;;21.90;14.20;;;;;;;;;;4718073;30;20053;-86
2022/05/20 04:04:36;;;;;;;31.50;13.88;;;;;;;;;;4716072;30;20048;-86
2022/05/20 04:07:07;;;;;;;34.20;14.48;;;;;;;;;;4717244;30;20052;-86
2022/05/20 04:09:33;;;;;;;13.07;11.75;;;;;;;;;;4717577;30;20056;-86
2022/05/20 04:12:00;;;;;;;16.58;12.45;;;;;;;;;;4731571;30;20052;-85
2022/05/20 04:14:27;;;;;;;15.30;12.98;;;;;;;;;;4732248;30;20119;-85
2022/05/20 04:16:57;;;;;;;18.85;12.35;;;;;;;;;;4717125;30;20059;-86
2022/05/20 04:19:30;;;;;;;24.85;14.15;;;;;;;;;;4732694;30;20053;-86
2022/05/20 04:21:58;;;;;;;17.95;12.30;;;;;;;;;;4731542;30;20045;-86
2022/05/20 04:24:24;;;;;;;17.95;13.50;;;;;;;;;;4732172;30;20057;-86
2022/05/20 04:26:51;;;;;;;15.68;13.43;;;;;;;;;;4731750;30;20083;-86
2022/05/20 04:29:18;;;;;;;16.92;14.10;;;;;;;;;;4732165;30;20056;-86
2022/05/20 04:31:48;;;;;;;16.20;13.27;;;;;;;;;;4716603;30;20057;-86
2022/05/20 04:34:14;;;;;;;18.08;12.88;;;;;;;;;;4717609;30;20057;-86
2022/05/20 04:36:40;;;;;;;17.08;13.25;;;;;;;;;;4716912;30;20056;-86
2022/05/20 04:39:06;;;;;;;16.63;13.10;;;;;;;;;;4715831;30;20053;-85
2022/05/20 04:47:04;;;;;;;16.50;12.98;;;11.60;99.90;;;;;;4731696;30;20084;-86
2022/05/20 04:49:31;;;;;;;15.23;13.63;;;;;;;;;;4716530;30;20109;-86
2022/05/20 04:51:58;;;;;;;18.80;14.07;;;;;;;;;;4717450;30;20045;-85
2022/05/20 04:57:09;;;;;;;16.73;14.77;;;;;;;;;;4731873;30;20103;-85
2022/05/20 04:59:36;;;;;;;16.92;14.02;;;;;;;;;;4731947;30;20048;-86
2022/05/20 05:02:03;;;;;;;19.95;14.35;;;;;;;;;;4712198;30;20081;-85
2022/05/20 05:04:29;;;;;;;18.83;13.93;;;;;;;;;;4702706;30;20072;-85
2022/05/20 05:06:55;;;;;;;16.17;14.27;;;;;;;;;;4708091;30;20060;-85
2022/05/20 05:09:21;;;;;;;16.98;14.30;;;;;;;;;;4707551;30;20056;-85
2022/05/20 05:11:47;;;;;;;23.42;14.63;;;;;;;;;;4717405;30;20049;-86
2022/05/20 05:14:16;;;;;;;18.17;14.57;;;;;;;;;;4730824;30;20422;-86
2022/05/20 05:16:43;;;;;;;17.65;15.73;;;;;;;;;;4731781;30;20060;-85
2022/05/20 05:19:12;;;;;;;23.23;17.10;;;;;;;;;;4720827;30;20048;-85
2022/05/20 05:21:39;;;;;;;22.63;16.85;;;;;;;;;;4736550;30;20084;-86
2022/05/20 05:24:05;;;;;;;23.55;16.40;;;;;;;;;;4734680;30;20088;-86
2022/05/20 05:26:34;;;;;;;22.00;15.43;;;;;;;;;;4721024;30;20520;-86
2022/05/20 05:29:01;;;;;;;21.75;15.57;;;;;;;;;;4735452;30;20060;-86
2022/05/20 05:31:27;;;;;;;21.88;14.80;;;;;;;;;;4720189;30;20052;-86
2022/05/20 05:33:53;;;;;;;19.40;15.65;;;;;;;;;;4737233;30;20423;-85
2022/05/20 05:36:20;;;;;;;19.65;14.77;;;;;;;;;;4735398;30;20049;-86
2022/05/20 05:38:46;;;;;;;21.42;15.00;;;;;;;;;;4721571;30;20147;-86
2022/05/20 05:41:13;;;;;;;23.35;14.60;;;;;;;;;;4737232;30;20087;-84
2022/05/20 05:43:39;;;;;;;16.42;14.05;;;;;;;;;;4738483;30;20045;-86
2022/05/20 05:46:05;;;;;;;17.75;14.05;;;;;;;;;;4722714;30;20052;-85
2022/05/20 05:48:31;;;;;;;18.67;13.95;;;;;;;;;;4736602;30;20058;-86
2022/05/20 05:50:59;;;;;;;16.25;14.48;;;;;;;;;;4737990;30;20051;-85
2022/05/20 05:53:25;;;;;;;19.23;13.88;;;;;;;;;;4721962;30;20161;-86
2022/05/20 05:55:56;;;;;;;23.80;12.93;;;;;;;;;;4737199;30;20057;-86
2022/05/20 05:58:22;;;;;;;20.42;12.93;;;;;;;;;;4719453;30;20162;-86
2022/05/20 06:00:48;;;;;;;13.98;11.82;;;;;;;;;;4735747;30;20049;-86
2022/05/20 06:03:16;;;;;;;20.30;14.20;;;;;;;;;;4733897;30;20127;-86
2022/05/20 06:05:42;;;;;;;21.40;14.00;;;;;;;;;;4720378;30;20052;-86
2022/05/20 06:08:08;;;;;;;16.83;13.50;;;;;;;;;;4734353;30;20499;-86
2022/05/20 06:10:35;;;;;;;14.95;10.73;;;;;;;;;;4734992;30;20080;-86
2022/05/20 06:13:01;;;;;;;17.83;11.55;;;;;;;;;;4739248;30;20098;-86
2022/05/20 06:15:28;;;;;;;15.32;12.23;;;;;;;;;;4753050;30;20142;-85
2022/05/20 06:17:55;;;;;;;18.33;11.88;;;;;;;;;;4737488;30;20153;-85
2022/05/20 06:20:22;;;;;;;16.55;10.52;;;;;;;;;;4736858;30;20056;-86
2022/05/20 06:22:49;;;;;;;15.07;10.70;;;;;;;;;;4737740;30;20052;-86
2022/05/20 06:25:15;;;;;;;13.45;8.80;;;;;;;;;;4736775;30;20509;-85
2022/05/20 06:27:42;;;;;;;14.98;10.32;;;;;;;;;;4752941;30;20052;-86
2022/05/20 06:30:11;;;;;;;20.83;11.15;;;13.50;99.90;;;;;;4736665;30;20056;-86
2022/05/20 06:32:37;;;;;;;13.63;11.32;;;;;;;;;;4753210;30;20398;-86
2022/05/20 06:40:44;;;;;;;12.45;10.02;;;;;;;;;;4737066;30;20067;-86
2022/05/20 06:43:12;;;;;;;12.15;8.77;;;14.00;99.90;;;;;;4737157;30;20480;-86
2022/05/20 06:45:38;;;;;;;13.63;8.75;;;;;;;;;;4721456;30;20063;-86
2022/05/20 06:48:05;;;;;;;12.35;7.88;;;;;;;;;;4752510;30;20563;-86
2022/05/20 06:50:32;;;;;;;15.32;9.82;;;;;;;;;;4736451;30;20102;-87
2022/05/20 06:52:58;;;;;;;12.65;9.93;;;;;;;;;;4735991;30;20051;-86
2022/05/20 06:55:24;;;;;;;13.88;9.98;;;;;;;;;;4737286;30;20063;-86
2022/05/20 06:57:51;;;;;;;14.40;9.90;;;;;;;;;;4735988;30;20139;-86
2022/05/20 07:00:17;;;;;;;16.67;10.40;;;;;;;;;;4736620;30;20052;-86
2022/05/20 07:02:44;;;;;;;14.02;10.95;;;;;;;;;;4736008;30;20056;-86
2022/05/20 07:05:10;;;;;;;16.42;11.43;;;14.50;99.90;;;;;;4751848;30;20052;-86
2022/05/20 07:07:37;;;;;;;11.95;10.75;;;;;;;;;;4736463;30;20056;-85
2022/05/20 07:10:03;;;;;;;13.60;10.13;;;;;;;;;;4751949;30;20484;-86
2022/05/20 07:12:29;;;;;;;17.58;12.02;;;;;;;;;;4736832;30;20450;-86
2022/05/20 07:14:55;;;;;;;15.25;11.30;;;14.50;99.90;;;;;;4735887;30;20471;-85
2022/05/20 07:17:22;;;;;;;17.17;10.95;;;;;;;;;;4736285;30;20052;-85
2022/05/20 07:19:51;;;;;;;11.38;8.65;;;;;;;;;;4736595;30;20464;-86
2022/05/20 07:22:17;;;;;;;12.43;7.72;;;;;;;;;;4750517;30;20171;-85
2022/05/20 07:24:43;;;;;;;13.30;9.30;;;;;;;;;;4752357;30;20052;-85
2022/05/20 07:27:09;;;;;;;14.52;7.95;;;;;;;;;;4735588;30;20060;-86
2022/05/20 07:29:36;;;;;;;14.25;7.10;;;;;;;;;;4736381;30;20134;-86
2022/05/20 07:32:02;;;;;;;11.63;6.82;;;;;;;;;;4726826;30;20064;-85
2022/05/20 07:34:28;;;;;;;12.52;8.40;;;;;;;;;;4735132;30;20052;-86
2022/05/20 07:36:55;;;;;;;11.23;6.97;;;;;;;;;;4715294;30;20096;-85
2022/05/20 07:39:21;;;;;;;8.55;7.13;;;;;;;;;;4721097;30;20051;-85
2022/05/20 07:41:47;;;;;;;11.50;8.07;;;;;;;;;;4721015;30;20138;-86
2022/05/20 07:44:14;;;;;;;9.43;6.90;;;;;;;;;;4751291;30;20048;-86
2022/05/20 07:46:40;;;;;;;9.68;6.05;;;;;;;;;;4735903;30;20044;-85
2022/05/20 07:49:06;;;;;;;9.32;4.28;;;;;;;;;;4721273;30;20083;-85
2022/05/20 07:51:33;;;;;;;7.95;4.43;;;;;;;;;;4751749;30;20055;-85
2022/05/20 07:54:13;;;;;;;7.10;6.40;;;15.60;99.90;;;;;;4734905;30;20056;-85
2022/05/20 07:56:49;;;;;;;9.93;6.88;;;15.60;99.90;;;;;;4720752;30;20091;-85
2022/05/20 07:59:27;;;;;;;9.73;7.93;;;15.50;99.90;;;;;;4721275;30;20058;-86
2022/05/20 08:01:54;;;;;;;9.43;6.57;;;15.40;99.90;;;;;;4708721;30;20048;-86
2022/05/20 08:07:24;;;;;;;7.40;5.47;;;;;;;;;;4736425;30;20063;-86
2022/05/20 08:09:51;;;;;;;9.38;5.03;;;;;;;;;;4751845;30;20052;-86
2022/05/20 08:12:17;;;;;;;7.38;4.72;;;;;;;;;;4751748;30;20087;-85
2022/05/20 08:14:43;;;;;;;8.30;5.60;;;;;;;;;;4751143;30;20079;-86
2022/05/20 08:17:09;;;;;;;7.78;4.05;;;;;;;;;;4736079;30;20060;-86
2022/05/20 08:19:35;;;;;;;5.82;4.60;;;;;;;;;;4736829;30;20096;-86
2022/05/20 08:22:02;;;;;;;10.00;4.90;;;;;;;;;;4721713;30;20048;-86
2022/05/20 08:24:29;;;;;;;8.73;5.70;;;;;;;;;;4735612;30;20056;-86
2022/05/20 08:26:55;;;;;;;10.38;4.72;;;;;;;;;;4752519;30;20095;-85
2022/05/20 08:29:22;;;;;;;10.82;6.15;;;;;;;;;;4736530;30;20055;-85
2022/05/20 08:31:48;;;;;;;10.80;5.18;;;;;;;;;;4721619;30;20063;-86
2022/05/20 08:34:14;;;;;;;6.68;4.80;;;;;;;;;;4722110;30;20132;-86
2022/05/20 08:36:40;;;;;;;8.02;4.80;;;16.50;99.90;;;;;;4735985;30;20087;-85
2022/05/20 08:39:10;;;;;;;10.38;4.32;;;;;;;;;;4752132;30;20059;-86
2022/05/20 08:41:41;;;;;;;8.93;4.00;;;16.50;99.90;;;;;;4751570;30;20120;-85
2022/05/20 08:44:12;;;;;;;5.80;3.88;;;16.50;99.90;;;;;;4704572;30;20053;-85
2022/05/20 08:46:39;;;;;;;6.10;3.92;;;16.50;99.90;;;;;;4725944;30;20056;-85
2022/05/20 08:49:06;;;;;;;5.63;3.90;;;;;;;;;;4736150;30;20052;-86
2022/05/20 08:51:33;;;;;;;7.53;4.93;;;;;;;;;;4750926;30;20059;-86
2022/05/20 08:53:59;;;;;;;7.50;4.95;;;;;;;;;;4754288;30;20421;-86
2022/05/20 08:56:29;;;;;;;11.98;5.53;;;;;;;;;;4739517;30;20048;-86
2022/05/20 08:59:11;;;;;;;9.68;4.30;;;17.00;99.90;;;;;;4739099;30;20060;-86
2022/05/20 09:01:43;;;;;;;9.45;4.38;;;16.70;99.90;;;;;;4755707;30;20494;-86
2022/05/20 09:04:12;;;;;;;10.30;3.83;;;16.90;99.90;;;;;;4718584;30;20044;-86
2022/05/20 09:06:56;;;;;;;10.38;4.65;;;16.90;99.90;;;;;;4722326;30;20057;-85
2022/05/20 09:09:22;;;;;;;6.88;4.60;;;;;;;;;;4720776;30;20055;-86
2022/05/20 09:11:55;;;;;;;7.15;4.68;;;17.00;99.90;;;;;;4755189;30;20198;-86
2022/05/20 09:17:15;;;;;;;10.73;4.18;;;17.20;99.90;;;;;;4739225;30;20055;-85
2022/05/20 09:20:14;;;;;;;5.70;4.20;;;16.90;99.90;;;;;;4739673;30;20448;-86
2022/05/20 09:22:41;;;;;;;4.47;3.65;;;17.30;99.90;;;;;;4682326;30;20081;-85
2022/05/20 09:25:10;;;;;;;8.40;4.15;;;17.40;99.90;;;;;;4667865;30;20643;-86
2022/05/20 09:27:36;;;;;;;3.33;3.00;;;;;;;;;;4665641;30;20058;-86
2022/05/20 09:30:14;;;;;;;5.40;2.70;;;17.60;99.90;;;;;;4678084;30;20506;-86
2022/05/20 09:32:43;;;;;;;3.00;2.67;;;17.70;99.90;;;;;;4669230;30;20065;-85
2022/05/20 09:35:21;;;;;;;5.93;3.15;;;17.70;99.90;;;;;;4683542;30;20086;-86
2022/05/20 09:37:50;;;;;;;3.53;2.95;;;17.60;99.90;;;;;;4663547;30;20058;-86
2022/05/20 09:40:21;;;;;;;5.32;3.50;;;17.70;99.90;;;;;;4653112;30;20157;-86
2022/05/20 09:43:02;;;;;;;4.53;3.67;;;17.80;99.90;;;;;;4667607;30;20563;-86
2022/05/20 09:45:28;;;;;;;5.50;2.45;;;;;;;;;;4683768;30;20065;-85
2022/05/20 09:47:57;;;;;;;5.65;3.00;;;17.90;99.90;;;;;;4684715;30;20058;-85
2022/05/20 09:50:23;;;;;;;6.35;3.22;;;;;;;;;;4669826;30;20098;-86
2022/05/20 09:52:57;;;;;;;4.25;3.03;;;17.90;99.90;;;;;;4670488;30;20066;-86
2022/05/20 09:55:38;;;;;;;5.13;3.20;;;17.90;99.90;;;;;;4669542;30;20853;-85
2022/05/20 09:58:27;;;;;;;4.43;3.75;;;18.00;99.90;;;;;;4676351;30;20097;-85
2022/05/20 10:00:59;;;;;;;5.47;3.03;;;18.00;99.90;;;;;;4747462;30;20048;-84
2022/05/20 10:03:39;;;;;;;5.60;2.20;;;17.80;99.90;;;;;;4740616;30;20433;-86
2022/05/20 10:06:18;;;;;;;7.15;2.30;;;18.10;99.90;;;;;;4755827;30;20529;-85
2022/05/20 10:09:10;;;;;;;4.05;2.35;;;18.10;99.90;;;;;;4739389;30;20077;-86
2022/05/20 10:11:48;;;;;;;7.43;3.95;;;18.10;99.90;;;;;;4733189;30;20461;-85
2022/05/20 10:14:27;;;;;;;6.20;4.18;;;18.10;99.90;;;;;;4739640;30;20060;-85
2022/05/20 10:17:22;;;;;;;3.95;3.58;;;18.10;99.90;;;;;;4724190;30;20067;-85
2022/05/20 10:19:52;;;;;;;8.60;4.18;;;18.10;99.90;;;;;;4740213;30;20084;-85
2022/05/20 10:22:48;;;;;;;6.38;3.72;;;18.00;99.90;;;;;;4725686;30;20051;-85
2022/05/20 10:25:17;;;;;;;8.00;3.90;;;;;;;;;;4756168;30;20138;-85
2022/05/20 10:34:15;;;;;;;5.40;4.13;;;;;;;;;;4739814;30;20048;-85
2022/05/20 10:36:41;;;;;;;8.52;4.75;;;;;;;;;;4740055;30;20194;-85
2022/05/20 10:39:28;;;;;;;5.00;4.25;;;18.40;99.90;;;;;;4739243;30;20545;-85
2022/05/20 10:41:57;;;;;;;6.03;4.70;;;18.30;99.90;;;;;;4739541;30;20075;-85
2022/05/20 10:50:48;;;;;;;5.70;3.50;;;18.50;99.90;;;;;;4700934;30;20100;-84
2022/05/20 10:53:14;;;;;;;6.95;4.90;;;;;;;;;;4684039;30;20411;-85
2022/05/20 10:56:07;;;;;;;5.05;4.25;;;18.50;99.90;;;;;;4669548;30;20141;-85
2022/05/20 10:58:53;;;;;;;5.72;4.70;;;18.40;99.90;;;;;;4685680;30;20589;-85
2022/05/20 11:01:29;;;;;;;5.60;4.75;;;18.50;99.90;;;;;;4671724;30;20042;-84
2022/05/20 11:04:07;;;;;;;10.50;5.80;;;;;;;;;;4696809;30;20135;-84
2022/05/20 11:07:08;;;;;;;10.10;5.30;;;18.20;99.90;;;;;;4682660;30;20420;-84
2022/05/20 11:09:34;;;;;;;8.63;6.20;;;;;;;;;;4665561;30;20062;-85
2022/05/20 11:12:04;;;;;;;6.28;5.15;;;18.40;99.90;;;;;;4650578;30;20065;-84
2022/05/20 11:14:48;;;;;;;4.82;4.00;;;;;;;;;;4650794;30;20494;-84
2022/05/20 11:17:19;;;;;;;;;;;18.50;99.90;;;;;;4667897;30;20145;-84
2022/05/20 11:20:09;;;;;;;5.55;3.92;;;18.50;99.90;;;;;;4679831;30;19978;-83
2022/05/20 11:23:08;;;;;;;5.07;3.28;;;18.50;99.90;;;;;;4662956;30;20092;-84
2022/05/20 11:26:14;;;;;;;4.10;3.70;;;18.50;99.90;;;;;;4684571;30;20061;-84
2022/05/20 11:28:40;;;;;;;4.22;3.72;;;;;;;;;;4708480;30;20067;-84
2022/05/20 11:31:07;;;;;;;4.53;3.42;;;;;;;;;;4698396;30;20052;-84
2022/05/20 11:33:46;;;;;;;3.88;3.42;;;18.70;99.90;;;;;;4698742;30;20071;-84
2022/05/20 11:36:44;;;;;;;7.32;4.30;;;18.50;99.90;;;;;;4698150;30;20423;-84
2022/05/20 11:39:41;;;;;;;6.45;4.20;;;18.70;99.90;;;;;;4693373;30;20064;-84
2022/05/20 11:42:28;;;;;;;7.43;4.20;;;18.90;99.90;;;;;;4648069;30;20101;-84
2022/05/20 11:45:14;;;;;;;7.55;5.10;;;18.80;99.90;;;;;;4676007;30;20079;-84
2022/05/20 11:48:05;;;;;;;8.18;4.30;;;18.90;99.90;;;;;;4672683;30;20046;-84
2022/05/20 11:50:55;;;;;;;4.93;3.60;;;18.90;99.90;;;;;;4677574;30;20054;-85
2022/05/20 11:53:41;;;;;;;9.02;4.10;;;19.00;99.90;;;;;;4672585;30;20062;-84
2022/05/20 11:56:39;;;;;;;5.75;4.32;;;19.10;99.90;;;;;;4677403;30;20069;-84
2022/05/20 11:59:17;;;;;;;5.03;3.72;;;18.70;99.90;;;;;;4690684;30;20069;-84
2022/05/20 12:01:46;;;;;;;6.53;3.58;;;19.10;99.90;;;;;;4678024;30;20217;-84
2022/05/20 12:04:13;;;;;;;5.25;3.28;;;19.10;99.90;;;;;;4681846;30;20116;-85
2022/05/20 12:06:52;;;;;;;4.75;4.28;;;19.30;99.90;;;;;;4665525;30;20073;-85
2022/05/20 12:09:37;;;;;;;4.47;3.17;;;18.70;99.90;;;;;;4686229;30;20081;-84
2022/05/20 12:12:09;;;;;;;9.95;5.30;;;19.20;99.90;;;;;;4671372;30;20055;-84
2022/05/20 12:15:01;;;;;;;5.22;3.55;;;19.00;99.90;;;;;;4647272;30;20066;-84
2022/05/20 12:17:36;;;;;;;6.70;3.33;;;19.30;99.90;;;;;;4681194;30;20061;-85
2022/05/20 12:26:07;;;;;;;9.02;4.72;;;;;;;;;;4734039;30;20052;-84
2022/05/20 12:28:36;;;;;;;6.72;4.30;;;19.40;99.90;;;;;;4722594;30;20048;-84
2022/05/20 12:31:13;;;;;;;7.43;4.35;;;19.50;99.90;;;;;;4737144;30;20544;-84
2022/05/20 12:34:05;;;;;;;9.15;4.78;;;19.50;99.90;;;;;;4723449;30;20490;-84
2022/05/20 12:36:42;;;;;;;7.05;4.82;;;19.60;99.90;;;;;;4723404;30;20044;-84
2022/05/20 12:39:08;;;;;;;9.05;5.03;;;;;;;;;;4720755;30;20139;-84
2022/05/20 12:41:44;;;;;;;5.13;4.47;;;19.70;99.90;;;;;;4711050;30;20093;-84
2022/05/20 12:44:16;;;;;;;7.72;5.15;;;19.90;99.90;;;;;;4715099;30;20066;-84
2022/05/20 12:47:03;;;;;;;9.60;4.43;;;19.70;99.90;;;;;;4736205;30;20056;-84
2022/05/20 12:49:46;;;;;;;5.43;3.92;;;19.80;99.90;;;;;;4723051;30;20117;-84
2022/05/20 12:52:17;;;;;;;8.88;4.82;;;19.80;99.90;;;;;;4723044;30;20052;-84
2022/05/20 12:54:48;;;;;;;7.05;4.30;;;19.80;99.90;;;;;;4738434;30;20121;-83
2022/05/20 12:57:18;;;;;;;5.00;3.63;;;19.80;99.90;;;;;;4723765;30;20049;-84
2022/05/20 12:59:54;;;;;;;4.45;4.00;;;19.80;99.90;;;;;;4722569;30;20509;-84
2022/05/20 13:02:21;;;;;;;6.75;3.58;;;19.80;99.90;;;;;;4697187;30;20052;-84
2022/05/20 13:05:02;;;;;;;4.88;2.95;;;19.90;99.90;;;;;;4735398;30;20057;-84
2022/05/20 13:07:28;;;;;;;4.38;3.10;;;;;;;;;;4736014;30;20055;-84
2022/05/20 13:09:55;;;;;;;3.65;3.25;;;20.00;99.90;;;;;;4737658;30;20494;-84
2022/05/20 13:12:22;;;;;;;6.22;3.53;;;19.90;99.90;;;;;;4737517;30;20536;-84
2022/05/20 13:15:02;;;;;;;4.55;3.55;;;19.80;99.90;;;;;;4738270;30;20118;-84
2022/05/20 13:17:31;;;;;;;4.65;3.72;;;19.70;99.90;;;;;;4736960;30;20131;-84
2022/05/20 13:19:58;;;;;;;10.20;4.18;;;;;;;;;;4721384;30;20490;-84
2022/05/20 13:22:26;;;;;;;4.10;3.70;;;19.50;99.90;;;;;;4723485;30;20059;-84
2022/05/20 13:25:06;;;;;;;5.57;3.60;;;19.60;99.90;;;;;;4736075;30;20079;-84
2022/05/20 13:27:32;;;;;;;4.05;2.47;;;;;;;;;;4722724;30;20090;-84
2022/05/20 13:30:21;;;;;;;4.57;3.50;;;19.40;99.90;;;;;;4724577;30;20113;-84
2022/05/20 13:32:47;;;;;;;4.10;3.72;;;;;;;;;;4739753;30;20472;-84
2022/05/20 13:35:13;;;;;;;5.45;4.40;;;;;;;;;;4723744;30;20060;-84
2022/05/20 13:37:49;;;;;;;7.60;5.20;;;19.60;99.90;;;;;;4737985;30;20048;-84
2022/05/20 13:40:37;;;;;;;10.25;5.68;;;19.40;99.90;;;;;;4738044;30;20063;-84
2022/05/20 13:43:03;;;;;;;6.30;5.68;;;19.30;99.90;;;;;;4737891;30;20056;-84
2022/05/20 13:51:11;;;;;;;6.10;5.43;;;19.30;99.90;;;;;;4739216;30;20056;-84
2022/05/20 13:53:41;;;;;;;7.45;6.63;;;19.30;99.90;;;;;;4736012;30;20047;-84
2022/05/20 13:56:11;;;;;;;7.72;5.95;;;19.20;99.90;;;;;;4723769;30;20044;-84
2022/05/20 13:58:42;;;;;;;10.40;6.88;;;19.30;99.90;;;;;;4736676;30;20089;-85
2022/05/20 14:01:12;;;;;;;12.10;8.18;;;19.10;99.90;;;;;;4723242;30;20044;-85
2022/05/20 14:03:42;;;;;;;11.57;7.93;;;19.00;99.90;;;;;;4736072;30;20494;-85
2022/05/20 14:06:19;;;;;;;13.43;9.52;;;19.00;99.90;;;;;;4722208;30;21144;-86
2022/05/20 14:08:52;;;;;;;13.05;9.18;;;18.70;99.90;;;;;;4720194;30;20068;-86
2022/05/20 14:11:41;;;;;;;12.60;9.02;;;19.00;99.90;;;;;;4731845;30;20055;-85
2022/05/20 14:14:21;;;;;;;11.52;9.05;;;18.90;99.90;;;;;;4721627;30;20064;-85
2022/05/20 14:16:49;;;;;;;13.13;9.88;;;18.70;99.90;;;;;;4737774;30;20391;-84
2022/05/20 14:19:15;;;;;;;13.60;9.40;;;;;;;;;;4720223;30;20048;-83
2022/05/20 14:21:43;;;;;;;11.48;9.07;;;18.50;99.90;;;;;;4747187;30;20063;-83
2022/05/20 14:24:19;;;;;;;10.07;9.07;;;18.50;99.90;;;;;;4721918;30;20052;-82
2022/05/20 14:26:54;;;;;;;13.10;8.75;;;18.40;99.90;;;;;;4721350;30;20119;-82
2022/05/20 14:29:29;;;;;;;;;;;18.50;99.90;;;;;;4709892;30;20167;-82
2022/05/20 14:32:02;;;;;;;11.85;9.35;;;18.30;99.90;;;;;;4728998;30;19926;-82
2022/05/20 14:34:28;;;;;;;15.25;11.65;;;;;;;;;;4735926;30;20122;-82
2022/05/20 14:36:57;;;;;;;12.95;9.50;;;18.10;99.90;;;;;;4752827;30;20121;-83
2022/05/20 14:39:27;;;;;;;11.98;9.35;;;18.00;99.90;;;;;;4723032;30;20055;-86
2022/05/20 14:42:07;;;;;;;13.90;9.57;;;17.80;99.90;;;;;;4752610;30;20117;-86
2022/05/20 14:44:34;;;;;;;11.40;9.65;;;;;;;;;;4717280;30;20523;-83
2022/05/20 14:47:16;;;;;;;15.40;9.27;;;17.80;99.90;;;;;;4727595;30;20092;-86
2022/05/20 14:49:56;;;;;;;10.48;8.25;;;17.80;99.90;;;;;;4732141;30;20447;-85
2022/05/20 14:52:29;;;;;;;9.48;7.85;;;17.60;99.90;;;;;;4732516;30;20059;-85
2022/05/20 14:54:55;;;;;;;9.23;7.80;;;;;;;;;;4706911;30;20064;-87